ダブリン の空港の天気 - METARとTAF

ダブリン空港 ( EIDW / DUB ) - アイルランド ダブリン
飛行場実況気象(Metar)
観測時間11/24 17:00 IST (11/24 17:00 UTC)
風向・風速西 5m/s
視程10km以上
天気現象弱い雨
少しの雲 雲底高度 150m
全天の4割程度の雲 雲底高度 610m
全天の8割程度の雲 雲底高度 1220m
気温6℃
湿度100%
気圧1003hPa
METAREIDW 241700Z 26010KT 9999 -RA FEW005 SCT020 BKN040 06/06 Q1003 NOSIG
過去の天気等 Google飛行場航空写真 Wunderground天気予報

過去48時間のMETAR

飛行場予報(TAF)
発表時間: 11/24 16:05 IST (11/24 16:05 UTC)
予報対象時間: 24日16時 IST ~ 25日12時 IST
風向・風速西 7m/s
視程10km以上
全天の4割程度の雲 雲底高度 370m
全天の8割程度の雲 雲底高度 760m
24日16時 IST ~ 24日18時 IST に一時的に
風向・風速西 8m/s 瞬間風速 13m/s
視程2500m
天気現象弱い雨
全天の8割程度の雲 雲底高度 240m
24日16時 IST ~ 24日18時 IST に 確率 30% で一時的に
天気現象
24日20時 IST ~ 24日22時 IST に徐々に
風向・風速西南西 5m/s
TAF AMD EIDW 241605Z 2416/2512 28013KT 9999 SCT012 BKN025
TEMPO 2416/2418 28015G25KT 2500 -RA BKN008
PROB30 TEMPO 2416/2418 RA
BECMG 2420/2422 24009KT